Time;durP1;ratioP1;P1;durP2;ratioP2;P2;SDS_P1;SDS_P2;PMS_P1;PMS_P2;Temp;Humidity;BMP_temperature;BMP_pressure;BME280_temperature;BME280_humidity;BME280_pressure;Samples;Min_cycle;Max_cycle;Signal;HPM_P1;HPM_P2
2023/12/20 00:01:07;;;;;;;13.63;2.90;;;;;;;;;;2079944;28;20949;-76
2023/12/20 00:02:26;;;;;;;14.40;2.20;;;;;;;;;;2076718;28;20037;-74
2023/12/20 00:03:45;;;;;;;18.17;2.35;;;;;;;;;;2078868;28;20034;-75
2023/12/20 00:05:04;;;;;;;11.10;2.20;;;;;;;;;;2080684;28;20026;-75
2023/12/20 00:06:23;;;;;;;14.85;3.00;;;;;;;;;;2080834;28;20025;-76
2023/12/20 00:07:42;;;;;;;15.55;2.67;;;;;;;;;;2082604;28;20029;-75
2023/12/20 00:09:01;;;;;;;9.48;2.42;;;;;;;;;;2080675;28;20490;-75
2023/12/20 00:10:20;;;;;;;12.85;2.80;;;;;;;;;;2075886;28;20065;-75
2023/12/20 00:11:41;;;;;;;15.52;2.25;;;;;;;;;;2079743;28;20055;-75
2023/12/20 00:13:00;;;;;;;10.73;2.08;;;;;;;;;;2074293;28;20112;-75
2023/12/20 00:14:19;;;;;;;16.38;2.00;;;;;;;;;;2079286;28;20025;-75
2023/12/20 00:15:38;;;;;;;18.55;2.38;;;;;;;;;;2080986;28;20022;-74
2023/12/20 00:16:57;;;;;;;17.02;2.67;;;;;;;;;;2080142;28;20053;-75
2023/12/20 00:18:16;;;;;;;13.85;2.25;;;;;;;;;;2081894;28;20026;-75
2023/12/20 00:19:35;;;;;;;12.95;1.88;;;;;;;;;;2081111;28;20026;-75
2023/12/20 00:20:54;;;;;;;12.40;1.98;;;;;;;;;;2074973;28;20026;-74
2023/12/20 00:22:12;;;;;;;11.43;1.63;;;;;;;;;;2065209;28;20070;-75
2023/12/20 00:23:32;;;;;;;14.73;3.10;;;;;;;;;;2076005;28;20059;-76
2023/12/20 00:24:51;;;;;;;12.70;2.67;;;;;;;;;;2075803;28;20030;-75
2023/12/20 00:26:10;;;;;;;13.60;2.45;;;;;;;;;;2077711;28;20022;-75
2023/12/20 00:27:29;;;;;;;19.15;2.83;;;;;;;;;;2079894;28;20104;-75
2023/12/20 00:28:48;;;;;;;13.75;2.03;;;;;;;;;;2072897;28;20484;-76
2023/12/20 00:30:07;;;;;;;17.55;2.90;;;;;;;;;;2075016;28;20498;-75
2023/12/20 00:31:26;;;;;;;14.65;1.73;;;;;;;;;;2075674;28;20046;-75
2023/12/20 00:32:48;;;;;;;13.75;2.05;;;;;;;;;;2071872;28;20034;-75
2023/12/20 00:34:07;;;;;;;15.15;2.55;;;;;;;;;;2067880;28;20034;-73
2023/12/20 00:35:26;;;;;;;12.18;1.60;;;;;;;;;;2068596;28;20026;-76
2023/12/20 00:36:45;;;;;;;11.40;2.50;;;;;;;;;;2072610;28;20030;-75
2023/12/20 00:38:05;;;;;;;15.02;1.90;;;;;;;;;;2071518;28;20454;-74
2023/12/20 00:39:24;;;;;;;16.85;2.30;;;;;;;;;;2071395;28;20476;-75
2023/12/20 00:40:43;;;;;;;9.27;2.13;;;;;;;;;;2072285;28;20022;-75
2023/12/20 00:42:02;;;;;;;13.40;2.25;;;;;;;;;;2072629;28;20038;-76
2023/12/20 00:43:22;;;;;;;11.20;2.20;;;;;;;;;;2069183;28;20030;-75
2023/12/20 00:44:41;;;;;;;15.73;3.13;;;;;;;;;;2072262;28;20105;-75
2023/12/20 00:46:00;;;;;;;17.88;2.60;;;;;;;;;;2072151;28;20054;-75
2023/12/20 00:47:19;;;;;;;13.13;2.47;;;;;;;;;;2071417;28;20025;-75
2023/12/20 00:48:38;;;;;;;15.77;1.83;;;;;;;;;;2070744;28;20105;-75
2023/12/20 00:49:58;;;;;;;12.18;2.08;;;;;;;;;;2071838;28;20457;-75
2023/12/20 00:51:17;;;;;;;12.02;2.33;;;;;;;;;;2072345;28;20025;-75
2023/12/20 00:52:36;;;;;;;15.88;2.58;;;;;;;;;;2073715;28;20078;-75
2023/12/20 00:53:54;;;;;;;12.90;2.20;;;;;;;;;;2072996;28;20034;-75
2023/12/20 00:55:14;;;;;;;18.45;1.98;;;;;;;;;;2072178;28;20022;-75
2023/12/20 00:56:33;;;;;;;16.45;2.28;;;;;;;;;;2071301;28;20022;-75
2023/12/20 00:57:53;;;;;;;18.20;2.63;;;;;;;;;;2071901;28;20408;-76
2023/12/20 00:59:12;;;;;;;16.42;2.80;;;;;;;;;;2070961;28;20081;-75
2023/12/20 01:00:31;;;;;;;17.27;2.72;;;;;;;;;;2068887;28;20057;-76
2023/12/20 01:01:51;;;;;;;13.02;2.15;;;;;;;;;;2068507;28;20105;-75
2023/12/20 01:03:10;;;;;;;21.30;2.83;;;;;;;;;;2068950;28;20026;-75
2023/12/20 01:04:31;;;;;;;15.50;3.13;;;;;;;;;;2068107;28;20026;-75
2023/12/20 01:05:51;;;;;;;19.73;2.70;;;;;;;;;;2070929;28;20108;-75
2023/12/20 01:07:09;;;;;;;15.90;2.78;;;;;;;;;;2070903;28;20515;-75
2023/12/20 01:08:28;;;;;;;22.27;2.85;;;;;;;;;;2071276;28;20041;-75
2023/12/20 01:09:47;;;;;;;21.20;3.00;;;;;;;;;;2071743;28;20026;-75
2023/12/20 01:11:06;;;;;;;14.82;2.03;;;;;;;;;;2073281;28;20578;-74
2023/12/20 01:12:25;;;;;;;19.80;2.42;;;;;;;;;;2071917;28;20066;-75
2023/12/20 01:13:44;;;;;;;10.88;2.22;;;;;;;;;;2071748;28;20014;-75
2023/12/20 01:15:03;;;;;;;27.20;2.67;;;;;;;;;;2070348;28;20113;-75
2023/12/20 01:16:22;;;;;;;19.77;2.72;;;;;;;;;;2072492;28;20595;-75
2023/12/20 01:17:41;;;;;;;13.57;2.63;;;;;;;;;;2072760;28;20030;-76
2023/12/20 01:19:00;;;;;;;18.27;2.92;;;;;;;;;;2067789;28;20033;-75
2023/12/20 01:20:20;;;;;;;15.43;3.13;;;;;;;;;;2071597;28;20026;-75
2023/12/20 01:21:39;;;;;;;15.80;2.58;;;;;;;;;;2071724;28;20061;-75
2023/12/20 01:22:58;;;;;;;12.60;2.53;;;;;;;;;;2070466;28;20038;-75
2023/12/20 01:24:17;;;;;;;13.60;3.05;;;;;;;;;;2071755;28;20038;-75
2023/12/20 01:25:36;;;;;;;21.60;3.58;;;;;;;;;;2070400;28;20030;-75
2023/12/20 01:26:55;;;;;;;20.90;3.30;;;;;;;;;;2073363;28;20037;-75
2023/12/20 01:28:14;;;;;;;18.52;2.88;;;;;;;;;;2073478;28;20034;-75
2023/12/20 01:29:33;;;;;;;16.88;2.78;;;;;;;;;;2079874;28;20042;-75
2023/12/20 01:30:52;;;;;;;11.52;2.00;;;;;;;;;;2078664;28;20033;-75
2023/12/20 01:32:11;;;;;;;17.48;2.10;;;;;;;;;;2074972;28;20066;-74
2023/12/20 01:33:30;;;;;;;14.50;2.55;;;;;;;;;;2070189;28;20502;-75
2023/12/20 01:34:49;;;;;;;28.65;3.53;;;;;;;;;;2077113;28;20510;-75
2023/12/20 01:36:08;;;;;;;21.38;3.38;;;;;;;;;;2072787;28;20057;-75
2023/12/20 01:37:29;;;;;;;15.30;2.40;;;;;;;;;;2076540;28;20022;-75
2023/12/20 01:38:48;;;;;;;15.10;2.80;;;;;;;;;;2081624;28;20017;-75
2023/12/20 01:40:08;;;;;;;16.25;2.92;;;;;;;;;;2071995;28;20022;-75
2023/12/20 01:41:27;;;;;;;15.43;2.50;;;;;;;;;;2077450;28;20033;-74
2023/12/20 01:42:46;;;;;;;16.23;2.72;;;;;;;;;;2079667;28;20046;-76
2023/12/20 01:44:05;;;;;;;14.50;2.13;;;;;;;;;;2082401;28;20116;-75
2023/12/20 01:45:24;;;;;;;17.58;3.10;;;;;;;;;;2089032;28;19998;-77
2023/12/20 01:46:43;;;;;;;21.55;2.67;;;;;;;;;;2089881;28;20059;-75
2023/12/20 01:48:03;;;;;;;18.17;2.80;;;;;;;;;;2089238;28;20034;-76
2023/12/20 01:49:23;;;;;;;11.48;2.40;;;;;;;;;;2083932;28;20100;-77
2023/12/20 01:50:43;;;;;;;14.15;2.58;;;;;;;;;;2076242;28;20144;-76
2023/12/20 01:52:02;;;;;;;15.80;3.00;;;;;;;;;;2074994;28;20048;-74
2023/12/20 01:53:21;;;;;;;15.75;3.00;;;;;;;;;;2068553;28;20427;-76
2023/12/20 01:54:42;;;;;;;18.15;2.65;;;;;;;;;;2078832;28;20033;-74
2023/12/20 01:56:01;;;;;;;16.25;2.28;;;;;;;;;;2082874;28;20022;-75
2023/12/20 01:57:21;;;;;;;17.17;3.00;;;;;;;;;;2081177;28;20030;-75
2023/12/20 01:58:43;;;;;;;28.20;3.10;;;;;;;;;;2084140;28;20030;-77
2023/12/20 02:00:03;;;;;;;24.52;3.30;;;;;;;;;;2087719;28;20033;-74
2023/12/20 02:01:22;;;;;;;18.73;3.22;;;;;;;;;;2077136;28;20026;-76
2023/12/20 02:02:41;;;;;;;15.05;2.38;;;;;;;;;;2078778;28;20026;-75
2023/12/20 02:04:00;;;;;;;21.52;3.13;;;;;;;;;;2084127;28;20029;-75
2023/12/20 02:05:19;;;;;;;28.30;3.30;;;;;;;;;;2084690;28;20030;-76
2023/12/20 02:06:40;;;;;;;19.83;3.28;;;;;;;;;;2077994;28;20072;-75
2023/12/20 02:07:59;;;;;;;14.25;2.97;;;;;;;;;;2073888;28;20498;-75
2023/12/20 02:09:19;;;;;;;24.95;3.20;;;;;;;;;;2073802;28;20045;-76
2023/12/20 02:10:38;;;;;;;18.48;2.85;;;;;;;;;;2076498;28;20522;-75
2023/12/20 02:11:57;;;;;;;17.33;2.45;;;;;;;;;;2077020;28;20029;-76
2023/12/20 02:13:16;;;;;;;16.30;2.60;;;;;;;;;;2080726;28;20022;-76
2023/12/20 02:14:35;;;;;;;21.38;3.10;;;;;;;;;;2080982;28;20017;-75
2023/12/20 02:15:57;;;;;;;10.05;2.03;;;;;;;;;;2073100;28;20030;-75
2023/12/20 02:17:16;;;;;;;22.42;3.28;;;;;;;;;;2075758;28;20029;-74
2023/12/20 02:18:35;;;;;;;13.93;2.60;;;;;;;;;;2080141;28;20022;-74
2023/12/20 02:19:54;;;;;;;23.17;3.03;;;;;;;;;;2079861;28;20029;-75
2023/12/20 02:21:13;;;;;;;18.10;2.72;;;;;;;;;;2080025;28;20585;-76
2023/12/20 02:22:31;;;;;;;20.15;2.75;;;;;;;;;;2080278;28;20033;-75
2023/12/20 02:23:50;;;;;;;24.35;3.25;;;;;;;;;;2079063;28;20108;-76
2023/12/20 02:25:09;;;;;;;17.23;2.88;;;;;;;;;;2079388;28;20113;-77
2023/12/20 02:26:28;;;;;;;13.85;2.22;;;;;;;;;;2081283;28;20037;-74
2023/12/20 02:27:48;;;;;;;17.15;2.78;;;;;;;;;;2080014;28;20037;-75
2023/12/20 02:29:07;;;;;;;25.95;3.15;;;;;;;;;;2072468;28;20569;-74
2023/12/20 02:30:26;;;;;;;19.00;3.03;;;;;;;;;;2064351;28;20034;-75
2023/12/20 02:31:45;;;;;;;22.27;3.58;;;;;;;;;;2068265;28;20050;-77
2023/12/20 02:33:07;;;;;;;19.52;2.72;;;;;;;;;;2070526;28;20022;-75
2023/12/20 02:34:26;;;;;;;17.10;3.58;;;;;;;;;;2079286;28;20041;-74
2023/12/20 02:35:45;;;;;;;20.83;4.45;;;;;;;;;;2076690;28;20026;-75
2023/12/20 02:37:04;;;;;;;17.50;2.95;;;;;;;;;;2067430;28;20026;-75
2023/12/20 02:38:22;;;;;;;16.95;2.92;;;;;;;;;;2075270;28;20029;-74
2023/12/20 02:39:41;;;;;;;23.08;3.10;;;;;;;;;;2072442;28;20030;-74
2023/12/20 02:41:00;;;;;;;18.80;2.15;;;;;;;;;;2074499;28;20037;-74
2023/12/20 02:42:19;;;;;;;13.63;2.63;;;;;;;;;;2077592;28;20522;-74
2023/12/20 02:43:38;;;;;;;20.90;2.50;;;;;;;;;;2074992;28;20037;-76
2023/12/20 02:44:57;;;;;;;15.68;3.10;;;;;;;;;;2076697;28;20604;-76
2023/12/20 02:46:17;;;;;;;8.85;2.20;;;;;;;;;;2078397;28;20545;-75
2023/12/20 02:47:36;;;;;;;15.52;2.53;;;;;;;;;;2071390;28;20073;-75
2023/12/20 02:48:55;;;;;;;19.63;3.00;;;;;;;;;;2076318;28;20363;-76
2023/12/20 02:50:13;;;;;;;15.10;2.80;;;;;;;;;;2074020;28;20037;-76
2023/12/20 02:51:32;;;;;;;9.93;2.13;;;;;;;;;;2076435;28;20499;-75
2023/12/20 02:52:51;;;;;;;15.48;2.28;;;;;;;;;;2079701;28;20804;-76
2023/12/20 02:54:10;;;;;;;16.05;2.35;;;;;;;;;;2076567;28;20439;-75
2023/12/20 02:55:29;;;;;;;17.23;2.08;;;;;;;;;;2070101;28;20494;-75
2023/12/20 02:56:48;;;;;;;12.52;2.15;;;;;;;;;;2076568;28;20039;-75
2023/12/20 02:58:07;;;;;;;14.73;2.30;;;;;;;;;;2074355;28;20025;-75
2023/12/20 02:59:27;;;;;;;19.88;2.75;;;;;;;;;;2076570;28;20025;-75
2023/12/20 03:00:45;;;;;;;18.90;3.45;;;;;;;;;;2072659;28;20038;-76
2023/12/20 03:02:04;;;;;;;18.55;3.08;;;;;;;;;;2078040;28;20021;-75
2023/12/20 03:03:23;;;;;;;17.30;2.35;;;;;;;;;;2079854;28;20026;-75
2023/12/20 03:04:42;;;;;;;20.27;2.53;;;;;;;;;;2079629;28;20033;-75
2023/12/20 03:06:01;;;;;;;15.15;2.97;;;;;;;;;;2065397;28;20073;-75
2023/12/20 03:07:21;;;;;;;16.60;2.38;;;;;;;;;;2073588;28;20022;-76
2023/12/20 03:08:40;;;;;;;9.85;2.65;;;;;;;;;;2073726;28;20026;-76
2023/12/20 03:09:59;;;;;;;12.20;2.13;;;;;;;;;;2071531;28;20041;-75
2023/12/20 03:11:19;;;;;;;13.52;2.47;;;;;;;;;;2079034;28;20526;-75
2023/12/20 03:12:37;;;;;;;14.15;2.13;;;;;;;;;;2079724;28;20037;-76
2023/12/20 03:13:57;;;;;;;15.00;2.53;;;;;;;;;;2072825;28;20030;-75
2023/12/20 03:15:16;;;;;;;9.88;2.10;;;;;;;;;;2074518;28;20030;-75
2023/12/20 03:16:35;;;;;;;20.10;2.92;;;;;;;;;;2077633;28;20045;-76
2023/12/20 03:17:54;;;;;;;12.82;2.67;;;;;;;;;;2079295;28;20034;-75
2023/12/20 03:19:13;;;;;;;12.77;2.55;;;;;;;;;;2075099;28;20029;-75
2023/12/20 03:20:35;;;;;;;12.90;1.90;;;;;;;;;;2072838;28;20128;-74
2023/12/20 03:21:54;;;;;;;17.27;2.28;;;;;;;;;;2077415;28;21389;-75
2023/12/20 03:23:13;;;;;;;12.00;2.72;;;;;;;;;;2070591;28;20419;-75
2023/12/20 03:24:32;;;;;;;16.15;2.78;;;;;;;;;;2077347;28;20495;-75
2023/12/20 03:25:51;;;;;;;15.93;2.38;;;;;;;;;;2079479;28;20499;-75
2023/12/20 03:27:10;;;;;;;15.63;2.13;;;;;;;;;;2079553;28;20033;-75
2023/12/20 03:28:29;;;;;;;12.82;2.38;;;;;;;;;;2076492;28;20080;-75
2023/12/20 03:29:49;;;;;;;17.20;2.53;;;;;;;;;;2079669;28;20033;-75
2023/12/20 03:31:09;;;;;;;12.55;2.47;;;;;;;;;;2072621;28;20042;-75
2023/12/20 03:32:28;;;;;;;16.58;2.35;;;;;;;;;;2068591;28;20029;-76
2023/12/20 03:33:47;;;;;;;15.30;2.35;;;;;;;;;;2072301;28;20022;-74
2023/12/20 03:35:06;;;;;;;14.23;2.53;;;;;;;;;;2078207;28;20116;-75
2023/12/20 03:36:25;;;;;;;14.07;2.70;;;;;;;;;;2080819;28;20025;-76
2023/12/20 03:37:44;;;;;;;10.40;2.63;;;;;;;;;;2081244;28;20022;-75
2023/12/20 03:39:03;;;;;;;14.05;2.55;;;;;;;;;;2078339;28;20022;-75
2023/12/20 03:40:22;;;;;;;16.38;2.28;;;;;;;;;;2075292;28;20037;-75
2023/12/20 03:41:41;;;;;;;11.77;2.03;;;;;;;;;;2076765;28;20108;-75
2023/12/20 03:43:00;;;;;;;12.38;2.30;;;;;;;;;;2080067;28;20030;-76
2023/12/20 03:44:19;;;;;;;12.38;2.28;;;;;;;;;;2076080;28;20101;-75
2023/12/20 03:45:38;;;;;;;12.10;2.53;;;;;;;;;;2068896;28;20101;-74
2023/12/20 03:46:57;;;;;;;14.48;2.42;;;;;;;;;;2077596;28;20034;-76
2023/12/20 03:48:16;;;;;;;11.85;2.13;;;;;;;;;;2080595;28;20803;-74
2023/12/20 03:49:36;;;;;;;10.63;2.45;;;;;;;;;;2078910;28;20487;-75
2023/12/20 03:50:56;;;;;;;14.40;2.92;;;;;;;;;;2081805;28;20037;-76
2023/12/20 03:52:15;;;;;;;14.80;2.45;;;;;;;;;;2080763;28;20033;-75
2023/12/20 03:53:34;;;;;;;15.50;2.63;;;;;;;;;;2080397;28;20030;-75
2023/12/20 03:54:53;;;;;;;11.60;2.35;;;;;;;;;;2070361;28;20038;-75
2023/12/20 03:56:12;;;;;;;12.95;2.22;;;;;;;;;;2072854;28;20025;-76
2023/12/20 03:57:31;;;;;;;13.68;2.20;;;;;;;;;;2078238;28;21042;-75
2023/12/20 03:58:50;;;;;;;12.52;2.40;;;;;;;;;;2079913;28;20029;-75
2023/12/20 04:00:10;;;;;;;8.35;1.85;;;;;;;;;;2078848;28;20108;-75
2023/12/20 04:01:29;;;;;;;18.55;2.53;;;;;;;;;;2074516;28;20030;-75
2023/12/20 04:02:47;;;;;;;10.43;2.05;;;;;;;;;;2072394;28;20030;-75
2023/12/20 04:04:06;;;;;;;8.88;2.42;;;;;;;;;;2073429;28;20037;-76
2023/12/20 04:05:26;;;;;;;17.20;2.55;;;;;;;;;;2078958;28;20033;-76
2023/12/20 04:06:45;;;;;;;9.32;2.28;;;;;;;;;;2073026;28;20061;-75
2023/12/20 04:08:04;;;;;;;12.00;1.75;;;;;;;;;;2072702;28;20025;-76
2023/12/20 04:09:23;;;;;;;13.52;2.35;;;;;;;;;;2079274;28;20448;-75
2023/12/20 04:10:42;;;;;;;16.35;2.25;;;;;;;;;;2081196;28;20033;-75
2023/12/20 04:12:01;;;;;;;14.10;2.58;;;;;;;;;;2080818;28;20029;-75
2023/12/20 04:13:20;;;;;;;10.63;2.15;;;;;;;;;;2078560;28;20021;-76
2023/12/20 04:14:39;;;;;;;11.02;2.80;;;;;;;;;;2082154;28;20462;-75
2023/12/20 04:15:58;;;;;;;13.95;2.63;;;;;;;;;;2074449;28;20042;-76
2023/12/20 04:17:17;;;;;;;23.15;2.22;;;;;;;;;;2079815;28;20433;-75
2023/12/20 04:18:36;;;;;;;9.43;2.20;;;;;;;;;;2079601;28;20546;-77
2023/12/20 04:19:55;;;;;;;9.57;2.00;;;;;;;;;;2081810;28;20030;-75
2023/12/20 04:21:14;;;;;;;12.00;2.55;;;;;;;;;;2080141;28;20060;-75
2023/12/20 04:22:33;;;;;;;8.13;2.45;;;;;;;;;;2074247;28;20029;-75
2023/12/20 04:23:52;;;;;;;10.10;2.33;;;;;;;;;;2070677;28;20030;-75
2023/12/20 04:25:10;;;;;;;7.88;2.30;;;;;;;;;;2076191;28;20522;-75
2023/12/20 04:26:30;;;;;;;6.60;1.90;;;;;;;;;;2073089;28;20042;-76
2023/12/20 04:27:49;;;;;;;11.27;2.17;;;;;;;;;;2074422;28;20112;-75
2023/12/20 04:29:08;;;;;;;10.57;2.53;;;;;;;;;;2079011;28;20041;-75
2023/12/20 04:30:27;;;;;;;9.65;1.95;;;;;;;;;;2078956;28;20030;-76
2023/12/20 04:31:46;;;;;;;10.65;2.47;;;;;;;;;;2072128;28;20042;-75
2023/12/20 04:33:05;;;;;;;12.52;2.60;;;;;;;;;;2078759;28;20026;-76
2023/12/20 04:34:24;;;;;;;9.65;1.90;;;;;;;;;;2081802;28;20053;-75
2023/12/20 04:35:45;;;;;;;11.32;2.53;;;;;;;;;;2082220;28;20426;-75
2023/12/20 04:37:04;;;;;;;14.70;3.00;;;;;;;;;;2079282;28;20029;-75
2023/12/20 04:38:23;;;;;;;12.52;2.47;;;;;;;;;;2080354;28;20057;-75
2023/12/20 04:39:42;;;;;;;13.23;2.47;;;;;;;;;;2079140;28;20026;-75
2023/12/20 04:41:01;;;;;;;10.75;2.58;;;;;;;;;;2075953;28;20029;-75
2023/12/20 04:42:20;;;;;;;11.27;2.45;;;;;;;;;;2077037;28;20034;-75
2023/12/20 04:43:39;;;;;;;16.38;2.70;;;;;;;;;;2080828;28;20512;-75
2023/12/20 04:44:58;;;;;;;6.25;2.30;;;;;;;;;;2074252;28;20065;-75
2023/12/20 04:46:17;;;;;;;7.32;2.33;;;;;;;;;;2071198;28;20022;-76
2023/12/20 04:47:36;;;;;;;6.20;1.98;;;;;;;;;;2071654;28;20590;-76
2023/12/20 04:48:55;;;;;;;6.63;2.30;;;;;;;;;;2076247;28;20033;-76
2023/12/20 04:50:15;;;;;;;8.98;1.95;;;;;;;;;;2078393;28;20386;-75
2023/12/20 04:51:34;;;;;;;11.93;2.70;;;;;;;;;;2074753;28;20026;-75
2023/12/20 04:52:53;;;;;;;6.70;2.20;;;;;;;;;;2079374;28;20021;-75
2023/12/20 04:54:13;;;;;;;12.27;2.47;;;;;;;;;;2080699;28;20014;-75
2023/12/20 04:55:32;;;;;;;8.90;2.28;;;;;;;;;;2074508;28;20463;-75
2023/12/20 04:56:51;;;;;;;13.13;2.30;;;;;;;;;;2070939;28;20034;-75
2023/12/20 04:58:09;;;;;;;12.80;2.58;;;;;;;;;;2071478;28;20026;-75
2023/12/20 04:59:28;;;;;;;13.93;2.70;;;;;;;;;;2079595;28;20112;-75
2023/12/20 05:00:47;;;;;;;12.73;2.33;;;;;;;;;;2072403;28;20022;-75
2023/12/20 05:02:06;;;;;;;8.65;2.50;;;;;;;;;;2072753;28;20034;-75
2023/12/20 05:03:25;;;;;;;9.13;2.38;;;;;;;;;;2080287;28;20026;-75
2023/12/20 05:04:44;;;;;;;13.35;2.33;;;;;;;;;;2080954;28;20540;-76
2023/12/20 05:06:03;;;;;;;9.35;2.08;;;;;;;;;;2073646;28;20499;-76
2023/12/20 05:07:22;;;;;;;9.57;2.40;;;;;;;;;;2077699;28;20433;-75
2023/12/20 05:08:41;;;;;;;17.50;2.88;;;;;;;;;;2073979;28;20034;-76
2023/12/20 05:10:01;;;;;;;8.23;2.47;;;;;;;;;;2076713;28;20033;-78
2023/12/20 05:11:20;;;;;;;8.48;2.42;;;;;;;;;;2073719;28;20030;-75
2023/12/20 05:12:39;;;;;;;11.43;2.50;;;;;;;;;;2080002;28;20021;-75
2023/12/20 05:13:58;;;;;;;10.50;2.28;;;;;;;;;;2080008;28;20017;-75
2023/12/20 05:15:17;;;;;;;8.63;2.55;;;;;;;;;;2072449;28;20030;-76
2023/12/20 05:16:36;;;;;;;9.02;2.72;;;;;;;;;;2077741;28;20512;-75
2023/12/20 05:17:55;;;;;;;9.00;2.10;;;;;;;;;;2074152;28;20030;-75
2023/12/20 05:19:14;;;;;;;9.70;2.42;;;;;;;;;;2071639;28;20576;-75
2023/12/20 05:20:33;;;;;;;13.95;2.63;;;;;;;;;;2078324;28;20451;-75
2023/12/20 05:21:52;;;;;;;8.43;3.08;;;;;;;;;;2079630;28;20375;-74
2023/12/20 05:23:11;;;;;;;26.05;3.40;;;;;;;;;;2076389;28;20480;-76
2023/12/20 05:24:30;;;;;;;8.90;2.50;;;;;;;;;;2076746;28;20026;-75
2023/12/20 05:25:49;;;;;;;11.23;2.65;;;;;;;;;;2075982;28;20026;-78
2023/12/20 05:27:08;;;;;;;14.00;2.42;;;;;;;;;;2080494;28;20026;-77
2023/12/20 05:28:28;;;;;;;9.20;2.33;;;;;;;;;;2086333;28;20053;-75
2023/12/20 05:29:47;;;;;;;9.35;2.42;;;;;;;;;;2082650;28;20010;-78
2023/12/20 05:31:06;;;;;;;9.63;2.50;;;;;;;;;;2088142;28;20053;-77
2023/12/20 05:32:26;;;;;;;11.40;2.88;;;;;;;;;;2074941;28;20026;-75
2023/12/20 05:33:45;;;;;;;6.93;2.33;;;;;;;;;;2071727;28;20430;-75
2023/12/20 05:35:04;;;;;;;13.25;2.60;;;;;;;;;;2086294;28;20013;-78
2023/12/20 05:36:23;;;;;;;14.10;3.28;;;;;;;;;;2084833;28;20022;-77
2023/12/20 05:37:42;;;;;;;14.95;3.42;;;;;;;;;;2088686;28;20064;-77
2023/12/20 05:39:03;;;;;;;9.15;2.67;;;;;;;;;;2088321;28;20042;-78
2023/12/20 05:40:22;;;;;;;7.40;2.90;;;;;;;;;;2088649;28;20018;-76
2023/12/20 05:41:41;;;;;;;10.40;2.28;;;;;;;;;;2088874;28;20025;-75
2023/12/20 05:43:00;;;;;;;7.88;2.45;;;;;;;;;;2084100;28;20405;-75
2023/12/20 05:44:19;;;;;;;15.80;3.15;;;;;;;;;;2080106;28;20108;-74
2023/12/20 05:45:38;;;;;;;10.07;2.75;;;;;;;;;;2074351;28;20033;-78
2023/12/20 05:46:56;;;;;;;12.05;2.25;;;;;;;;;;2071144;28;20542;-74
2023/12/20 05:48:16;;;;;;;11.35;2.70;;;;;;;;;;2078065;28;20041;-74
2023/12/20 05:49:34;;;;;;;10.45;2.95;;;;;;;;;;2080605;28;20061;-74
2023/12/20 05:50:54;;;;;;;8.70;2.85;;;;;;;;;;2078655;28;20125;-74
2023/12/20 05:52:13;;;;;;;7.43;2.60;;;;;;;;;;2078893;28;21370;-75
2023/12/20 05:53:32;;;;;;;7.30;2.70;;;;;;;;;;2066295;28;20029;-76
2023/12/20 05:54:52;;;;;;;12.55;3.13;;;;;;;;;;2075925;28;20506;-74
2023/12/20 05:56:11;;;;;;;7.75;2.85;;;;;;;;;;2079606;28;20026;-75
2023/12/20 05:57:30;;;;;;;13.07;2.88;;;;;;;;;;2075097;28;20013;-74
2023/12/20 05:58:49;;;;;;;12.65;3.08;;;;;;;;;;2074723;28;20399;-75
2023/12/20 06:00:09;;;;;;;15.70;3.20;;;;;;;;;;2077696;28;20033;-74
2023/12/20 06:01:28;;;;;;;11.20;3.28;;;;;;;;;;2072027;28;20877;-73
2023/12/20 06:02:47;;;;;;;13.40;3.22;;;;;;;;;;2076070;28;20030;-74
2023/12/20 06:04:06;;;;;;;15.30;3.60;;;;;;;;;;2078998;28;20394;-74
2023/12/20 06:05:25;;;;;;;13.10;3.13;;;;;;;;;;2072887;28;20089;-74
2023/12/20 06:06:44;;;;;;;7.97;3.05;;;;;;;;;;2068489;28;20031;-75
2023/12/20 06:08:04;;;;;;;15.43;3.35;;;;;;;;;;2077572;28;20029;-74
2023/12/20 06:09:23;;;;;;;25.30;4.07;;;;;;;;;;2077141;28;20033;-75
2023/12/20 06:10:42;;;;;;;30.40;3.90;;;;;;;;;;2079556;28;20391;-75
2023/12/20 06:12:01;;;;;;;11.27;3.50;;;;;;;;;;2074455;28;20029;-75
2023/12/20 06:13:20;;;;;;;18.67;4.22;;;;;;;;;;2070945;28;20025;-72
2023/12/20 06:14:39;;;;;;;22.27;4.43;;;;;;;;;;2068377;28;20033;-74
2023/12/20 06:15:57;;;;;;;18.33;4.30;;;;;;;;;;2075110;28;20034;-74
2023/12/20 06:17:16;;;;;;;16.13;4.03;;;;;;;;;;2071550;28;20033;-75
2023/12/20 06:18:36;;;;;;;35.63;4.20;;;;;;;;;;2071664;28;20021;-74
2023/12/20 06:19:55;;;;;;;14.07;3.67;;;;;;;;;;2074040;28;20037;-74
2023/12/20 06:21:14;;;;;;;18.13;4.28;;;;;;;;;;2079251;28;20033;-74
2023/12/20 06:22:34;;;;;;;36.70;4.43;;;;;;;;;;2073842;28;20045;-75
2023/12/20 06:23:53;;;;;;;22.52;4.20;;;;;;;;;;2077762;28;20034;-74
2023/12/20 06:25:12;;;;;;;33.60;4.57;;;;;;;;;;2076985;28;20021;-75
2023/12/20 06:26:31;;;;;;;25.90;4.82;;;;;;;;;;2071769;28;20030;-74
2023/12/20 06:27:50;;;;;;;20.88;4.40;;;;;;;;;;2076224;28;20029;-74
2023/12/20 06:29:09;;;;;;;33.75;4.63;;;;;;;;;;2062540;28;20038;-75
2023/12/20 06:30:28;;;;;;;30.40;5.20;;;;;;;;;;2060420;28;20026;-75
2023/12/20 06:31:47;;;;;;;33.03;5.10;;;;;;;;;;2062092;28;20046;-75
2023/12/20 06:33:06;;;;;;;25.38;4.55;;;;;;;;;;2061509;28;20038;-75
2023/12/20 06:34:26;;;;;;;30.80;5.45;;;;;;;;;;2060372;28;20042;-74
2023/12/20 06:35:44;;;;;;;39.33;4.72;;;;;;;;;;2058486;28;20089;-74
2023/12/20 06:37:05;;;;;;;39.17;4.53;;;;;;;;;;2063155;28;20487;-75
2023/12/20 06:38:24;;;;;;;44.60;5.57;;;;;;;;;;2060830;28;20022;-75
2023/12/20 06:39:43;;;;;;;32.67;4.80;;;;;;;;;;2060796;28;20027;-74
2023/12/20 06:41:02;;;;;;;41.70;4.97;;;;;;;;;;2062133;28;20496;-75
2023/12/20 06:42:20;;;;;;;32.17;4.75;;;;;;;;;;2062915;28;20471;-74
2023/12/20 06:43:40;;;;;;;44.70;4.93;;;;;;;;;;2062569;28;20030;-75
2023/12/20 06:44:59;;;;;;;44.85;5.32;;;;;;;;;;2062202;28;20018;-75
2023/12/20 06:46:18;;;;;;;62.45;6.00;;;;;;;;;;2060568;28;20027;-74
2023/12/20 06:47:37;;;;;;;31.02;5.70;;;;;;;;;;2059002;28;20023;-74
2023/12/20 06:48:56;;;;;;;19.63;5.47;;;;;;;;;;2061692;28;20254;-74
2023/12/20 06:50:15;;;;;;;65.10;5.93;;;;;;;;;;2063017;28;20503;-74
2023/12/20 06:51:34;;;;;;;32.15;5.55;;;;;;;;;;2059586;28;20039;-75
2023/12/20 06:52:53;;;;;;;26.58;6.15;;;;;;;;;;2057424;28;20027;-74
2023/12/20 06:54:12;;;;;;;24.63;6.55;;;;;;;;;;2061502;28;20030;-78
2023/12/20 06:55:31;;;;;;;53.13;6.78;;;;;;;;;;2058702;28;20035;-74
2023/12/20 06:56:50;;;;;;;45.67;7.05;;;;;;;;;;2058386;28;20027;-74
2023/12/20 06:58:08;;;;;;;33.85;5.32;;;;;;;;;;2056760;28;20034;-74
2023/12/20 06:59:37;;;;;;;37.30;5.15;;;;;;;;;;2056314;28;20030;-75
2023/12/20 07:00:56;;;;;;;68.60;4.93;;;;;;;;;;2066127;28;20033;-77
2023/12/20 07:02:15;;;;;;;18.25;3.15;;;;;;;;;;2065792;28;20106;-74
2023/12/20 07:03:34;;;;;;;59.13;5.55;;;;;;;;;;2063845;28;20031;-74
2023/12/20 07:04:53;;;;;;;62.75;4.70;;;;;;;;;;2063534;28;20464;-75
2023/12/20 07:06:12;;;;;;;22.17;3.97;;;;;;;;;;2059952;28;20026;-75
2023/12/20 07:07:31;;;;;;;49.80;5.47;;;;;;;;;;2062614;28;20412;-75
2023/12/20 07:08:50;;;;;;;28.60;4.90;;;;;;;;;;2062193;28;20113;-75
2023/12/20 07:10:09;;;;;;;38.22;4.65;;;;;;;;;;2059431;28;20042;-75
2023/12/20 07:11:28;;;;;;;52.53;5.25;;;;;;;;;;2061710;28;20026;-75
2023/12/20 07:12:48;;;;;;;59.28;6.22;;;;;;;;;;2061991;28;20030;-74
2023/12/20 07:14:07;;;;;;;20.08;4.20;;;;;;;;;;2060839;28;20423;-75
2023/12/20 07:15:26;;;;;;;29.13;5.50;;;;;;;;;;2063916;28;20034;-75
2023/12/20 07:16:45;;;;;;;18.90;5.65;;;;;;;;;;2064377;28;20440;-77
2023/12/20 07:18:06;;;;;;;17.13;4.68;;;;;;;;;;2064052;28;20022;-75
2023/12/20 07:19:25;;;;;;;22.27;5.05;;;;;;;;;;2062023;28;20023;-75
2023/12/20 07:20:44;;;;;;;14.40;5.18;;;;;;;;;;2065277;28;20023;-75
2023/12/20 07:22:04;;;;;;;19.95;5.28;;;;;;;;;;2063804;28;20026;-75
2023/12/20 07:23:22;;;;;;;23.48;5.78;;;;;;;;;;2064569;28;20046;-74
2023/12/20 07:24:41;;;;;;;18.33;5.07;;;;;;;;;;2064911;28;20508;-76
2023/12/20 07:26:00;;;;;;;11.38;5.55;;;;;;;;;;2065230;28;20034;-75
2023/12/20 07:27:19;;;;;;;22.83;6.88;;;;;;;;;;2064494;28;20120;-75
2023/12/20 07:28:38;;;;;;;22.65;7.13;;;;;;;;;;2071325;28;20049;-75
2023/12/20 07:29:57;;;;;;;31.27;7.20;;;;;;;;;;2080557;28;20384;-75
2023/12/20 07:31:16;;;;;;;23.77;7.88;;;;;;;;;;2074759;28;20117;-76
2023/12/20 07:32:35;;;;;;;16.83;7.32;;;;;;;;;;2076195;28;20511;-76
2023/12/20 07:33:54;;;;;;;23.75;7.57;;;;;;;;;;2076844;28;20057;-76
2023/12/20 07:35:13;;;;;;;19.55;7.45;;;;;;;;;;2074336;28;20026;-74
2023/12/20 07:36:32;;;;;;;20.02;7.35;;;;;;;;;;2078715;28;20030;-76
2023/12/20 07:37:50;;;;;;;23.77;8.23;;;;;;;;;;2081153;28;20056;-74
2023/12/20 07:39:11;;;;;;;27.33;7.82;;;;;;;;;;2081260;28;20033;-75
2023/12/20 07:40:30;;;;;;;28.42;9.45;;;;;;;;;;2075572;28;20499;-74
2023/12/20 07:41:49;;;;;;;31.45;8.85;;;;;;;;;;2080413;28;20029;-74
2023/12/20 07:43:08;;;;;;;29.98;7.95;;;;;;;;;;2072416;28;20029;-74
2023/12/20 07:44:28;;;;;;;24.17;8.35;;;;;;;;;;2071378;28;20038;-76
2023/12/20 07:45:47;;;;;;;24.02;8.50;;;;;;;;;;2075360;28;20578;-74
2023/12/20 07:47:06;;;;;;;19.83;7.88;;;;;;;;;;2073985;28;20038;-74
2023/12/20 07:48:25;;;;;;;32.78;9.30;;;;;;;;;;2072039;28;20029;-75